Time;durP1;ratioP1;P1;durP2;ratioP2;P2;SDS_P1;SDS_P2;PMS_P1;PMS_P2;Temp;Humidity;BMP_temperature;BMP_pressure;BME280_temperature;BME280_humidity;BME280_pressure;Samples;Min_cycle;Max_cycle;Signal;HPM_P1;HPM_P2
2021/07/19 00:01:18;;;;;;;4.00;3.63;;;;;;;16.80;79.39;100995.16;5072437;28;20224;-73
2021/07/19 00:03:45;;;;;;;4.10;3.63;;;;;;;16.88;79.35;100985.97;5073019;28;20277;-73
2021/07/19 00:06:11;;;;;;;5.00;3.20;;;;;;;16.98;79.42;100982.78;5072504;28;20170;-73
2021/07/19 00:08:37;;;;;;;4.23;3.70;;;;;;;16.87;78.75;100982.41;5072403;28;20174;-73
2021/07/19 00:11:04;;;;;;;13.70;4.27;;;;;;;16.78;79.35;100980.88;5072240;28;20545;-73
2021/07/19 00:13:30;;;;;;;5.43;3.50;;;;;;;16.78;79.13;100986.38;5072220;28;20736;-73
2021/07/19 00:15:55;;;;;;;4.23;3.80;;;;;;;16.76;79.23;100983.97;5072419;28;20262;-73
2021/07/19 00:18:21;;;;;;;3.27;2.97;;;;;;;16.89;79.67;100984.81;5072357;28;20205;-73
2021/07/19 00:20:47;;;;;;;3.33;3.03;;;;;;;16.93;79.40;100983.81;5072161;28;20174;-73
2021/07/19 00:23:12;;;;;;;6.00;3.80;;;;;;;16.77;79.22;100993.06;5070774;28;20579;-73
2021/07/19 00:25:38;;;;;;;4.70;3.90;;;;;;;16.55;80.18;100992.25;5072511;28;20170;-73
2021/07/19 00:28:03;;;;;;;4.23;3.83;;;;;;;16.43;80.84;100989.44;5072049;28;20249;-74
2021/07/19 00:30:29;;;;;;;5.43;4.07;;;;;;;16.42;80.54;100993.34;5072220;28;20171;-73
2021/07/19 00:32:54;;;;;;;4.90;4.13;;;;;;;16.38;80.53;100994.38;5071833;28;20689;-73
2021/07/19 00:35:20;;;;;;;5.17;4.67;;;;;;;16.39;80.71;101001.50;5072038;28;20209;-72
2021/07/19 00:37:46;;;;;;;5.33;3.93;;;;;;;16.40;80.67;100997.59;5072230;28;20174;-73
2021/07/19 00:40:23;;;;;;;3.50;3.20;;;;;;;16.36;80.91;100994.69;5071660;28;20178;-73
2021/07/19 00:42:49;;;;;;;3.80;3.50;;;;;;;16.42;80.43;101001.63;5071653;28;20177;-73
2021/07/19 00:45:20;;;;;;;3.93;2.97;;;;;;;16.43;80.16;100996.91;5071653;28;20171;-73
2021/07/19 00:47:47;;;;;;;4.27;3.87;;;;;;;16.49;80.85;101001.06;5071523;28;20660;-73
2021/07/19 00:50:14;;;;;;;10.63;3.97;;;;;;;16.66;80.67;100996.22;5071537;28;20171;-73
2021/07/19 00:52:40;;;;;;;4.40;3.90;;;;;;;16.62;79.92;100994.47;5071313;28;20209;-73
2021/07/19 00:55:07;;;;;;;6.77;3.83;;;;;;;16.54;80.57;100998.13;5050313;28;20167;-73
2021/07/19 00:57:36;;;;;;;4.07;3.03;;;;;;;16.50;80.87;100998.00;5051671;28;20185;-74
2021/07/19 01:00:08;;;;;;;5.17;3.93;;;;;;;16.61;81.20;100988.13;5051356;28;20183;-73
2021/07/19 01:02:37;;;;;;;3.97;3.67;;;;;;;16.83;80.97;100992.50;5051285;28;20240;-73
2021/07/19 01:05:04;;;;;;;3.73;3.43;;;;;;;16.83;79.79;100986.19;5051145;28;20514;-73
2021/07/19 01:07:32;;;;;;;4.20;3.60;;;;;;;16.85;80.44;100981.13;5051379;28;20175;-73
2021/07/19 01:09:57;;;;;;;5.67;4.50;;;;;;;16.77;79.70;100982.81;5051294;28;20302;-74
2021/07/19 01:12:24;;;;;;;3.70;3.40;;;;;;;16.71;79.60;100975.09;5051397;28;20182;-74
2021/07/19 01:14:49;;;;;;;4.10;3.80;;;;;;;16.71;80.08;100975.91;5051552;28;20176;-73
2021/07/19 01:17:15;;;;;;;4.10;3.70;;;;;;;16.95;79.88;100972.44;5051221;28;20518;-73
2021/07/19 01:19:44;;;;;;;5.53;4.53;;;;;;;16.86;79.62;100967.00;5051171;28;20175;-73
2021/07/19 01:22:29;;;;;;;4.67;3.83;;;;;;;17.06;80.20;100973.56;5050824;28;20175;-73
2021/07/19 01:25:08;;;;;;;4.13;3.73;;;;;;;17.20;79.68;100971.31;5051291;28;20175;-73
2021/07/19 01:28:07;;;;;;;4.03;3.53;;;;;;;17.22;79.19;100973.75;5050955;28;20723;-73
2021/07/19 01:30:35;;;;;;;4.23;3.53;;;;;;;17.22;78.43;100968.22;5050901;28;20688;-73
2021/07/19 01:33:04;;;;;;;3.83;3.53;;;;;;;17.24;78.75;100971.44;5050600;28;20222;-74
2021/07/19 01:35:37;;;;;;;4.10;3.37;;;;;;;17.05;79.99;100966.44;5050420;28;20233;-73
2021/07/19 01:38:04;;;;;;;4.77;4.20;;;;;;;17.11;80.45;100973.38;5050802;28;20650;-73
2021/07/19 01:40:30;;;;;;;4.60;4.20;;;;;;;17.16;79.77;100959.34;5050507;28;20171;-73
2021/07/19 01:42:57;;;;;;;5.07;4.27;;;;;;;17.11;80.63;100965.09;5050614;28;20179;-73
2021/07/19 01:45:23;;;;;;;6.83;3.97;;;;;;;17.10;81.06;100963.50;5050612;28;20179;-73
2021/07/19 01:47:50;;;;;;;4.77;3.93;;;;;;;17.15;81.40;100951.41;5050728;28;20398;-73
2021/07/19 01:50:16;;;;;;;5.03;4.40;;;;;;;17.15;81.81;100957.72;5050441;28;20590;-73
2021/07/19 01:52:42;;;;;;;5.60;3.87;;;;;;;17.16;81.51;100958.53;5050336;28;20290;-73
2021/07/19 01:55:09;;;;;;;4.97;4.53;;;;;;;17.15;82.05;100954.97;5050517;28;20178;-73
2021/07/19 01:57:35;;;;;;;6.23;3.80;;;;;;;17.05;82.25;100958.16;5050565;28;20171;-73
2021/07/19 02:00:03;;;;;;;5.20;3.87;;;;;;;16.96;83.09;100960.25;5050705;28;20228;-73
2021/07/19 02:02:29;;;;;;;8.53;4.07;;;;;;;16.94;83.68;100959.78;5050429;28;20194;-73
2021/07/19 02:04:54;;;;;;;3.80;3.47;;;;;;;16.92;83.45;100965.63;5050317;28;20622;-73
2021/07/19 02:07:23;;;;;;;4.47;4.07;;;;;;;16.84;83.90;100960.19;5050378;28;20201;-73
2021/07/19 02:09:51;;;;;;;4.40;3.90;;;;;;;16.82;84.45;100962.50;5050236;28;20179;-73
2021/07/19 02:12:16;;;;;;;4.63;3.40;;;;;;;16.76;85.33;100967.41;5050184;28;20651;-73
2021/07/19 02:14:42;;;;;;;5.47;4.50;;;;;;;16.77;85.43;100954.41;5050341;28;20172;-73
2021/07/19 02:17:09;;;;;;;4.77;4.10;;;;;;;16.76;85.61;100974.88;5050364;28;20175;-73
2021/07/19 02:19:37;;;;;;;5.60;4.17;;;;;;;16.72;85.73;100971.19;5050160;28;20300;-73
2021/07/19 02:22:03;;;;;;;5.50;3.87;;;;;;;16.66;86.66;100968.63;5050158;28;20172;-73
2021/07/19 02:24:31;;;;;;;4.70;3.80;;;;;;;16.65;87.36;100971.72;5050239;28;20260;-73
2021/07/19 02:26:57;;;;;;;4.60;4.00;;;;;;;16.60;87.04;100978.25;5050119;28;20644;-73
2021/07/19 02:29:23;;;;;;;6.43;3.97;;;;;;;16.57;87.51;100983.63;5064428;28;20215;-73
2021/07/19 02:31:51;;;;;;;5.17;3.50;;;;;;;16.55;87.52;100977.66;5070072;28;20171;-73
2021/07/19 02:34:21;;;;;;;4.17;3.73;;;;;;;16.52;87.64;100975.59;5070090;28;20228;-73
2021/07/19 02:36:48;;;;;;;3.63;3.23;;;;;;;16.50;87.43;100978.69;5070154;28;20538;-73
2021/07/19 02:39:14;;;;;;;8.27;4.57;;;;;;;16.45;87.42;100973.34;5070262;28;20171;-73
2021/07/19 02:41:42;;;;;;;7.93;3.13;;;;;;;16.44;88.12;100970.94;5069822;28;20175;-73
2021/07/19 02:44:08;;;;;;;4.67;3.63;;;;;;;16.51;87.94;100973.97;5069946;28;20174;-73
2021/07/19 02:46:35;;;;;;;5.13;3.00;;;;;;;16.46;88.01;100974.97;5070013;28;20166;-74
2021/07/19 02:49:01;;;;;;;4.30;3.43;;;;;;;16.49;87.59;100971.56;5073794;28;20323;-74
2021/07/19 02:51:29;;;;;;;6.37;3.47;;;;;;;16.45;87.96;100975.31;5073698;28;20697;-73
2021/07/19 02:53:57;;;;;;;4.20;3.03;;;;;;;16.43;88.25;100972.88;5073696;28;20228;-74
2021/07/19 02:56:24;;;;;;;4.27;3.37;;;;;;;16.42;87.98;100971.28;5073751;28;20171;-73
2021/07/19 02:58:50;;;;;;;3.00;2.60;;;;;;;16.41;88.04;100983.47;5073489;28;20181;-73
2021/07/19 03:01:20;;;;;;;5.60;3.17;;;;;;;16.40;87.64;100973.56;5073452;28;20178;-73
2021/07/19 03:03:48;;;;;;;3.90;3.37;;;;;;;16.41;86.75;100977.94;5073824;28;20163;-73
2021/07/19 03:06:18;;;;;;;3.60;3.30;;;;;;;16.23;86.60;100973.72;5073461;28;20179;-73
2021/07/19 03:08:44;;;;;;;6.10;3.83;;;;;;;16.26;86.36;100970.28;5073413;28;20288;-73
2021/07/19 03:11:39;;;;;;;3.90;2.90;;;;;;;16.37;85.57;100977.00;5073263;28;20578;-73
2021/07/19 03:14:08;;;;;;;4.20;3.73;;;;;;;16.18;85.37;100977.47;5073338;28;20564;-73
2021/07/19 03:16:35;;;;;;;2.47;2.27;;;;;;;16.10;86.06;100977.53;5073518;28;20186;-73
2021/07/19 03:19:03;;;;;;;4.33;3.60;;;;;;;16.12;86.05;100976.06;5073327;28;20189;-73
2021/07/19 03:21:30;;;;;;;4.07;3.47;;;;;;;16.23;86.52;100977.28;5072989;28;20175;-73
2021/07/19 03:23:58;;;;;;;4.33;3.20;;;;;;;16.33;86.25;100979.63;5073122;28;20186;-73
2021/07/19 03:26:25;;;;;;;3.17;2.87;;;;;;;16.38;86.15;100984.13;5072934;28;20175;-74
2021/07/19 03:28:51;;;;;;;3.63;2.97;;;;;;;16.50;85.98;100981.44;5073016;28;20209;-73
2021/07/19 03:31:18;;;;;;;3.23;2.60;;;;;;;16.47;85.55;100982.09;5071566;28;20174;-73
2021/07/19 03:33:44;;;;;;;4.00;3.23;;;;;;;16.39;86.47;100985.75;5071566;28;20206;-73
2021/07/19 03:36:11;;;;;;;4.67;3.50;;;;;;;16.15;87.34;100991.13;5072788;28;20269;-73
2021/07/19 03:38:38;;;;;;;4.53;3.83;;;;;;;15.99;89.20;100994.47;5072978;28;20186;-74
2021/07/19 03:41:05;;;;;;;4.77;3.03;;;;;;;15.92;87.83;101002.47;5072591;28;20174;-73
2021/07/19 03:43:32;;;;;;;7.60;3.10;;;;;;;15.87;86.35;101002.66;5072695;28;20186;-73
2021/07/19 03:45:58;;;;;;;4.80;2.90;;;;;;;15.74;85.10;101004.50;5072688;28;20175;-73
2021/07/19 03:48:24;;;;;;;13.33;2.60;;;;;;;15.72;84.52;101005.97;5071171;28;20539;-73
2021/07/19 03:50:51;;;;;;;3.17;2.47;;;;;;;15.63;82.99;100999.72;5070966;28;20243;-73
2021/07/19 03:53:16;;;;;;;4.27;2.33;;;;;;;15.57;82.49;100999.06;5072612;28;20210;-73
2021/07/19 03:55:44;;;;;;;2.50;2.00;;;;;;;15.52;82.28;101006.69;5071279;28;20185;-73
2021/07/19 03:58:11;;;;;;;4.53;2.67;;;;;;;15.52;81.37;100990.19;5072223;28;20180;-73
2021/07/19 04:00:36;;;;;;;2.40;1.70;;;;;;;15.46;81.05;100998.59;5072663;28;20637;-73
2021/07/19 04:03:15;;;;;;;4.00;1.90;;;;;;;15.63;80.95;100999.72;5072200;28;20195;-73
2021/07/19 04:05:44;;;;;;;3.87;2.07;;;;;;;15.81;80.12;101005.94;5072502;28;20173;-73
2021/07/19 04:08:10;;;;;;;6.83;2.53;;;;;;;15.71;79.52;101007.94;5072417;28;20189;-73
2021/07/19 04:10:37;;;;;;;4.00;1.73;;;;;;;15.47;79.74;101005.72;5072430;28;20177;-73
2021/07/19 04:13:06;;;;;;;2.07;1.87;;;;;;;15.54;80.15;101007.97;5072463;28;20199;-73
2021/07/19 04:15:34;;;;;;;3.27;1.60;;;;;;;15.59;79.83;101005.06;5072266;28;20182;-73
2021/07/19 04:17:59;;;;;;;3.47;2.20;;;;;;;15.61;79.58;101011.03;5072136;28;20166;-73
2021/07/19 04:20:25;;;;;;;2.30;2.10;;;;;;;15.61;79.41;101011.03;5070950;28;20247;-73
2021/07/19 04:22:53;;;;;;;2.80;2.57;;;;;;;15.56;78.70;101010.41;5073250;28;20175;-74
2021/07/19 04:25:18;;;;;;;2.27;2.00;;;;;;;15.63;78.74;101017.06;5082075;28;20171;-74
2021/07/19 04:27:44;;;;;;;2.20;1.70;;;;;;;15.56;78.47;101013.16;5074804;28;20534;-74
2021/07/19 04:30:11;;;;;;;3.00;1.30;;;;;;;15.84;79.00;101017.09;5073266;28;20295;-74
2021/07/19 04:32:43;;;;;;;1.70;1.53;;;;;;;15.87;77.67;101015.63;5071523;28;20202;-73
2021/07/19 04:35:17;;;;;;;3.20;2.10;;;;;;;15.82;77.66;101015.81;5069783;28;20183;-74
2021/07/19 04:37:42;;;;;;;5.53;1.80;;;;;;;15.86;77.09;101017.56;5071327;28;20179;-74
2021/07/19 04:40:08;;;;;;;3.37;1.87;;;;;;;16.12;77.71;101014.66;5072573;28;20189;-74
2021/07/19 04:42:37;;;;;;;2.67;1.83;;;;;;;16.10;77.06;101008.69;5071870;28;20761;-74
2021/07/19 04:45:05;;;;;;;1.87;1.50;;;;;;;16.17;77.27;101016.41;5071893;28;20175;-74
2021/07/19 04:47:30;;;;;;;4.20;2.07;;;;;;;16.24;76.64;101011.19;5071871;28;20177;-73
2021/07/19 04:49:55;;;;;;;3.47;1.90;;;;;;;15.83;76.15;101001.72;5071759;28;20258;-74
2021/07/19 04:52:21;;;;;;;4.80;1.90;;;;;;;15.69;77.12;101003.88;5071361;28;20202;-73
2021/07/19 04:54:47;;;;;;;4.07;2.30;;;;;;;15.73;77.34;101008.41;5071558;28;20265;-74
2021/07/19 04:57:14;;;;;;;4.53;2.10;;;;;;;15.71;77.62;101013.44;5070272;28;20182;-74
2021/07/19 04:59:44;;;;;;;5.63;1.80;;;;;;;15.64;77.43;101015.09;5071567;28;20174;-74
2021/07/19 05:02:13;;;;;;;2.47;1.73;;;;;;;15.73;77.41;101018.59;5071180;28;20218;-74
2021/07/19 05:04:40;;;;;;;2.57;1.90;;;;;;;15.89;77.82;101021.59;5071498;28;20183;-74
2021/07/19 05:07:07;;;;;;;3.33;1.70;;;;;;;15.86;77.75;101025.84;5071280;28;20178;-74
2021/07/19 05:09:34;;;;;;;2.83;1.70;;;;;;;16.04;78.38;101023.78;5070675;28;20167;-74
2021/07/19 05:12:00;;;;;;;2.20;1.57;;;;;;;16.19;78.59;101030.66;5071234;28;20171;-74
2021/07/19 05:14:26;;;;;;;2.13;1.80;;;;;;;16.18;78.22;101031.78;5071283;28;20202;-73
2021/07/19 05:16:52;;;;;;;3.23;1.53;;;;;;;16.26;77.97;101033.72;5071253;28;20189;-74
2021/07/19 05:19:18;;;;;;;5.80;2.30;;;;;;;16.40;77.93;101027.94;5071115;28;20182;-72
2021/07/19 05:21:44;;;;;;;2.73;1.70;;;;;;;16.45;77.96;101028.53;5070900;28;20183;-72
2021/07/19 05:24:10;;;;;;;3.67;1.47;;;;;;;16.55;76.65;101022.59;5071014;28;20177;-72
2021/07/19 05:26:36;;;;;;;3.13;1.73;;;;;;;16.55;75.41;101030.88;5071043;28;20257;-72
2021/07/19 05:29:02;;;;;;;3.37;2.10;;;;;;;16.61;76.16;101025.94;5071104;28;20642;-72
2021/07/19 05:31:28;;;;;;;4.03;1.60;;;;;;;16.64;76.03;101033.59;5070582;28;20656;-72
2021/07/19 05:33:53;;;;;;;2.23;1.80;;;;;;;16.34;77.16;101032.81;5070838;28;20526;-72
2021/07/19 05:36:19;;;;;;;2.80;2.20;;;;;;;16.46;78.21;101029.31;5070811;28;20529;-71
2021/07/19 05:38:45;;;;;;;2.20;1.60;;;;;;;16.46;79.66;101032.88;5069888;28;20202;-72
2021/07/19 05:41:12;;;;;;;3.43;2.17;;;;;;;16.47;79.43;101029.00;5070678;28;20174;-73
2021/07/19 05:43:37;;;;;;;2.57;2.00;;;;;;;16.48;80.68;101038.88;5070853;28;20257;-73
2021/07/19 05:46:04;;;;;;;3.30;2.50;;;;;;;16.55;79.60;101035.59;5070734;28;20325;-73
2021/07/19 05:48:29;;;;;;;2.63;2.20;;;;;;;16.50;80.34;101033.84;5070708;28;20241;-73
2021/07/19 05:50:55;;;;;;;5.00;2.07;;;;;;;16.52;80.64;101039.03;5070531;28;20254;-72
2021/07/19 05:53:20;;;;;;;5.87;1.87;;;;;;;16.45;79.74;101027.72;5070949;28;20650;-73
2021/07/19 05:55:48;;;;;;;3.03;2.57;;;;;;;16.54;80.27;101032.03;5070756;28;20205;-73
2021/07/19 05:58:13;;;;;;;5.80;2.30;;;;;;;16.49;80.49;101035.00;5070680;28;20189;-72
2021/07/19 06:00:38;;;;;;;4.77;2.40;;;;;;;16.45;80.54;101024.97;5070591;28;20637;-72
2021/07/19 06:03:05;;;;;;;5.97;2.10;;;;;;;16.31;80.85;101034.31;5070308;28;20187;-73
2021/07/19 06:05:31;;;;;;;3.43;1.80;;;;;;;16.38;81.61;101039.28;5070648;28;20170;-73
2021/07/19 06:07:56;;;;;;;2.90;1.90;;;;;;;16.32;81.34;101041.44;5070490;28;20885;-73
2021/07/19 06:10:22;;;;;;;7.13;2.40;;;;;;;16.31;81.36;101039.00;5070442;28;20171;-72
2021/07/19 06:12:47;;;;;;;2.87;2.23;;;;;;;16.31;82.59;101041.78;5070169;28;20244;-73
2021/07/19 06:15:13;;;;;;;3.40;1.77;;;;;;;16.31;81.79;101045.34;5070429;28;20292;-73
2021/07/19 06:17:39;;;;;;;1.93;1.77;;;;;;;16.28;82.33;101046.00;5070646;28;20182;-73
2021/07/19 06:20:10;;;;;;;2.67;2.20;;;;;;;16.36;82.30;101042.41;5070380;28;20173;-74
2021/07/19 06:22:36;;;;;;;1.50;1.23;;;;;;;16.37;81.29;101054.22;5072170;28;20179;-72
2021/07/19 06:25:03;;;;;;;3.50;2.03;;;;;;;16.36;81.31;101042.41;5074504;28;20182;-72
2021/07/19 06:27:28;;;;;;;2.40;1.67;;;;;;;16.40;81.02;101050.81;5074701;28;20189;-72
2021/07/19 06:29:53;;;;;;;3.07;2.20;;;;;;;16.41;82.23;101049.66;5074140;28;20174;-72
2021/07/19 06:32:19;;;;;;;3.27;2.33;;;;;;;16.50;80.43;101044.88;5074080;28;20208;-73
2021/07/19 06:34:44;;;;;;;1.40;1.30;;;;;;;16.55;80.66;101041.13;5074212;28;20776;-72
2021/07/19 06:37:09;;;;;;;3.40;2.33;;;;;;;16.55;81.31;101047.44;5074251;28;20178;-74
2021/07/19 06:39:35;;;;;;;4.80;2.80;;;;;;;16.65;81.47;101049.78;5073904;28;20638;-76
2021/07/19 06:42:00;;;;;;;2.37;2.00;;;;;;;16.66;77.78;101045.88;5073405;28;20676;-78
2021/07/19 06:44:25;;;;;;;1.77;1.67;;;;;;;16.74;76.51;101046.16;5073558;28;20178;-72
2021/07/19 06:46:52;;;;;;;3.37;2.33;;;;;;;16.86;75.52;101051.75;5074088;28;20538;-72
2021/07/19 06:49:17;;;;;;;4.77;2.30;;;;;;;16.94;74.85;101050.88;5074086;28;20182;-73
2021/07/19 06:51:43;;;;;;;4.10;2.37;;;;;;;16.99;75.21;101052.59;5073652;28;20178;-72
2021/07/19 06:54:08;;;;;;;3.03;1.80;;;;;;;17.04;76.42;101044.09;5073580;28;20198;-72
2021/07/19 06:56:33;;;;;;;2.23;2.03;;;;;;;17.00;74.30;101054.22;5073276;28;20281;-72
2021/07/19 06:58:59;;;;;;;1.40;1.30;;;;;;;16.99;72.93;101053.41;5073449;28;20627;-72
2021/07/19 07:01:24;;;;;;;2.03;1.83;;;;;;;17.02;73.94;101051.91;5073120;28;20193;-72
2021/07/19 07:03:50;;;;;;;2.90;1.90;;;;;;;17.06;73.71;101058.38;5073171;28;20215;-73
2021/07/19 07:06:15;;;;;;;3.57;2.17;;;;;;;17.00;74.69;101057.78;5073292;28;20182;-73
2021/07/19 07:08:40;;;;;;;4.27;1.80;;;;;;;17.01;76.07;101051.09;5073301;28;20200;-72
2021/07/19 07:11:05;;;;;;;2.00;1.80;;;;;;;17.01;75.43;101053.88;5072984;28;20201;-72
2021/07/19 07:13:31;;;;;;;2.80;1.90;;;;;;;16.93;75.91;101055.59;5072901;28;20190;-72
2021/07/19 07:15:56;;;;;;;2.00;1.77;;;;;;;16.93;75.40;101054.78;5073209;28;20166;-72
2021/07/19 07:18:21;;;;;;;3.00;1.80;;;;;;;16.98;74.35;101051.78;5073501;28;20178;-72
2021/07/19 07:20:47;;;;;;;2.37;1.67;;;;;;;16.80;72.12;101055.88;5073357;28;20236;-72
2021/07/19 07:23:12;;;;;;;3.40;1.80;;;;;;;16.62;72.45;101050.44;5073447;28;20185;-72
2021/07/19 07:25:37;;;;;;;1.57;1.37;;;;;;;16.84;73.37;101048.53;5073398;28;20277;-72
2021/07/19 07:28:03;;;;;;;2.30;1.33;;;;;;;16.92;71.99;101047.63;5073214;28;20676;-72
2021/07/19 07:30:28;;;;;;;3.17;1.50;;;;;;;16.89;72.19;101053.81;5072055;28;20270;-72
2021/07/19 07:32:54;;;;;;;6.77;2.53;;;;;;;16.98;72.92;101057.31;5072164;28;20195;-73
2021/07/19 07:35:19;;;;;;;2.70;1.60;;;;;;;17.09;72.96;101047.47;5073345;28;20175;-72
2021/07/19 07:37:45;;;;;;;2.20;1.20;;;;;;;17.04;72.04;101050.44;5071770;28;20570;-72
2021/07/19 07:40:13;;;;;;;1.20;1.10;;;;;;;17.01;73.27;101045.59;5068556;28;20492;-72
2021/07/19 07:42:39;;;;;;;2.70;1.70;;;;;;;17.07;74.79;101048.94;5071589;28;20638;-72
2021/07/19 07:45:06;;;;;;;1.67;1.43;;;;;;;16.97;75.04;101050.19;5072985;28;20232;-72
2021/07/19 07:47:31;;;;;;;3.00;1.87;;;;;;;17.07;74.58;101054.44;5072800;28;20210;-72
2021/07/19 07:49:57;;;;;;;2.93;1.37;;;;;;;17.22;75.28;101056.59;5072640;28;20623;-73
2021/07/19 07:52:22;;;;;;;6.53;2.37;;;;;;;17.18;74.77;101052.88;5072133;28;20171;-72
2021/07/19 07:54:48;;;;;;;3.70;2.40;;;;;;;17.26;73.96;101040.94;5072594;28;20279;-72
2021/07/19 07:57:14;;;;;;;1.70;1.43;;;;;;;17.36;71.76;101045.22;5072665;28;20171;-72
2021/07/19 07:59:39;;;;;;;3.67;2.03;;;;;;;17.47;71.32;101044.44;5072480;28;20174;-72
2021/07/19 08:02:06;;;;;;;2.00;1.80;;;;;;;17.43;70.57;101046.28;5072019;28;20198;-72
2021/07/19 08:04:31;;;;;;;2.20;1.73;;;;;;;17.36;70.81;101051.56;5072422;28;20649;-72
2021/07/19 08:06:57;;;;;;;2.27;1.43;;;;;;;17.54;71.81;101057.69;5072178;28;20170;-72
2021/07/19 08:09:23;;;;;;;10.90;1.77;;;;;;;17.40;71.98;101052.50;5071023;28;20540;-73
2021/07/19 08:11:48;;;;;;;3.10;2.30;;;;;;;17.42;70.88;101049.38;5071762;28;20224;-72
2021/07/19 08:14:14;;;;;;;2.17;1.23;;;;;;;17.36;70.20;101050.72;5072583;28;20285;-73
2021/07/19 08:16:39;;;;;;;2.90;1.50;;;;;;;17.51;69.04;101048.13;5072536;28;20523;-73
2021/07/19 08:19:07;;;;;;;2.47;1.43;;;;;;;17.74;68.23;101048.53;5070795;28;20163;-73
2021/07/19 08:21:34;;;;;;;1.60;1.43;;;;;;;17.85;67.51;101051.63;5068595;28;20265;-73
2021/07/19 08:23:59;;;;;;;1.70;1.60;;;;;;;17.85;67.03;101051.63;5070435;28;20162;-73
2021/07/19 08:26:25;;;;;;;1.63;1.27;;;;;;;18.13;67.90;101043.44;5071026;28;20277;-73
2021/07/19 08:28:52;;;;;;;1.97;1.70;;;;;;;18.11;66.90;101040.22;5071864;28;20265;-73
2021/07/19 08:31:18;;;;;;;4.03;1.50;;;;;;;18.06;66.98;101045.97;5070467;28;20495;-72
2021/07/19 08:33:43;;;;;;;2.27;1.73;;;;;;;18.09;66.85;101037.00;5071852;28;20229;-72
2021/07/19 08:36:09;;;;;;;1.97;1.87;;;;;;;18.00;64.35;101030.78;5071745;28;20634;-72
2021/07/19 08:38:34;;;;;;;1.70;1.30;;;;;;;18.09;65.32;101035.03;5071897;28;20228;-72
2021/07/19 08:41:00;;;;;;;1.70;1.40;;;;;;;18.21;63.17;101034.19;5071178;28;20515;-73
2021/07/19 08:43:26;;;;;;;2.90;1.30;;;;;;;18.23;63.08;101026.38;5069399;28;20186;-73
2021/07/19 08:45:51;;;;;;;2.90;1.70;;;;;;;18.47;63.04;101027.47;5070476;28;20257;-73
2021/07/19 08:48:17;;;;;;;8.57;1.40;;;;;;;18.53;61.87;101026.06;5071402;28;20262;-72
2021/07/19 08:50:42;;;;;;;1.57;1.37;;;;;;;18.61;60.11;101031.44;5070666;28;20183;-73
2021/07/19 08:53:08;;;;;;;2.73;1.90;;;;;;;18.27;59.47;101020.94;5071372;28;20214;-73
2021/07/19 08:55:34;;;;;;;5.90;2.20;;;;;;;18.05;60.14;101019.47;5071484;28;20471;-72
2021/07/19 08:58:01;;;;;;;1.63;1.23;;;;;;;18.36;62.77;101016.88;5071502;28;20632;-72
2021/07/19 09:00:26;;;;;;;1.60;1.50;;;;;;;18.51;64.07;101020.88;5071447;28;20174;-72
2021/07/19 09:02:52;;;;;;;1.20;1.10;;;;;;;18.74;61.09;101010.09;5071087;28;20196;-72
2021/07/19 09:05:17;;;;;;;1.50;1.40;;;;;;;18.57;59.68;101015.91;5071882;28;20176;-72
2021/07/19 09:07:43;;;;;;;3.27;1.57;;;;;;;18.94;62.13;101017.38;5071314;28;20608;-72
2021/07/19 09:10:10;;;;;;;1.87;1.57;;;;;;;19.09;58.71;101020.53;5071172;28;20184;-72
2021/07/19 09:12:38;;;;;;;3.37;1.50;;;;;;;18.78;59.44;101013.75;5070660;28;20669;-71
2021/07/19 09:15:09;;;;;;;1.20;1.17;;;;;;;18.62;59.42;101013.69;5070990;28;20622;-72
2021/07/19 09:17:35;;;;;;;6.40;2.30;;;;;;;18.37;60.26;101012.13;5070606;28;20184;-72
2021/07/19 09:20:01;;;;;;;1.80;1.20;;;;;;;18.59;60.29;101014.38;5070924;28;20277;-72
2021/07/19 09:22:27;;;;;;;6.20;2.23;;;;;;;18.25;61.43;101009.44;5069730;28;20666;-72
2021/07/19 09:25:04;;;;;;;3.37;2.03;;;;;;;18.31;61.80;101008.81;5065981;28;20190;-73
2021/07/19 09:27:29;;;;;;;2.17;1.50;;;;;;;18.50;61.73;101002.66;5070052;28;20170;-72
2021/07/19 09:29:56;;;;;;;2.40;2.20;;;;;;;18.19;61.54;100996.97;5070908;28;20174;-72
2021/07/19 09:32:23;;;;;;;1.50;1.30;;;;;;;18.41;62.47;100994.50;5070629;28;20257;-73
2021/07/19 09:34:48;;;;;;;1.50;1.40;;;;;;;18.56;61.18;100987.41;5071118;28;20245;-72
2021/07/19 09:37:14;;;;;;;2.90;1.83;;;;;;;18.87;61.09;100992.28;5071285;28;20194;-72
2021/07/19 09:39:42;;;;;;;2.37;1.30;;;;;;;19.06;61.94;100985.22;5069998;28;20606;-72
2021/07/19 09:42:12;;;;;;;2.13;1.30;;;;;;;19.20;61.12;100978.09;5070067;28;20177;-72
2021/07/19 09:44:38;;;;;;;1.60;1.50;;;;;;;19.01;59.99;100986.31;5070450;28;20214;-73
2021/07/19 09:47:07;;;;;;;2.80;1.80;;;;;;;18.79;59.63;100982.16;5070871;28;20220;-73
2021/07/19 09:49:33;;;;;;;1.07;1.00;;;;;;;19.11;62.35;100977.50;5064255;28;20216;-73
2021/07/19 09:52:10;;;;;;;5.37;1.90;;;;;;;18.94;59.35;100980.56;5069918;28;20712;-72
2021/07/19 09:54:43;;;;;;;1.63;1.47;;;;;;;18.84;60.03;100973.59;5070283;28;20237;-73
2021/07/19 09:57:09;;;;;;;3.37;1.70;;;;;;;18.89;58.84;100969.75;5057139;28;20186;-73
2021/07/19 09:59:55;;;;;;;1.57;1.43;;;;;;;19.04;58.86;100963.44;5070568;28;20179;-73
2021/07/19 10:02:38;;;;;;;2.00;1.80;;;;;;;19.48;58.40;100975.25;5070202;28;20186;-72
2021/07/19 10:05:05;;;;;;;2.30;1.50;;;;;;;19.59;57.09;100965.25;5069182;28;20178;-73
2021/07/19 10:07:30;;;;;;;1.80;1.60;;;;;;;19.79;58.01;100956.97;5070779;28;20634;-72
2021/07/19 10:10:08;;;;;;;1.50;1.33;;;;;;;19.87;57.15;100954.03;5071816;28;20209;-72
2021/07/19 10:12:34;;;;;;;1.90;1.80;;;;;;;19.94;56.84;100969.19;5077387;28;20175;-73
2021/07/19 10:15:01;;;;;;;3.00;1.20;;;;;;;19.81;56.87;100963.78;5071766;28;20257;-72
2021/07/19 10:17:29;;;;;;;1.63;1.40;;;;;;;19.58;56.50;100960.06;5069428;28;20190;-72
2021/07/19 10:19:56;;;;;;;1.70;1.60;;;;;;;19.47;56.81;100959.78;5070598;28;20178;-73
2021/07/19 10:22:22;;;;;;;1.60;1.40;;;;;;;19.43;57.73;100952.56;5070544;28;20170;-72
2021/07/19 10:24:47;;;;;;;1.73;1.60;;;;;;;19.88;56.42;100954.81;5070771;28;20243;-72
2021/07/19 10:27:17;;;;;;;1.80;1.70;;;;;;;19.94;55.11;100950.59;5070638;28;20171;-72
2021/07/19 10:29:44;;;;;;;2.47;1.73;;;;;;;20.00;55.38;100962.22;5069706;28;20251;-73
2021/07/19 10:32:09;;;;;;;2.37;1.97;;;;;;;19.73;54.69;100963.97;5066709;28;20712;-72
2021/07/19 10:34:35;;;;;;;1.40;1.30;;;;;;;19.58;55.09;100966.41;5069140;28;20301;-72
2021/07/19 10:37:06;;;;;;;1.60;1.50;;;;;;;19.55;55.09;100956.06;5068752;28;20213;-72
2021/07/19 10:39:37;;;;;;;3.97;1.67;;;;;;;19.50;56.57;100959.06;5070089;28;20175;-72
2021/07/19 10:42:06;;;;;;;2.00;1.80;;;;;;;19.42;56.57;100960.06;5069360;28;20178;-72
2021/07/19 10:44:34;;;;;;;1.80;1.20;;;;;;;19.56;54.06;100965.19;5070055;28;20170;-72
2021/07/19 10:47:17;;;;;;;1.93;1.40;;;;;;;19.58;38.65;100968.38;5068873;28;20248;-72
2021/07/19 10:50:01;;;;;;;2.30;1.40;;;;;;;19.70;55.84;100964.72;5068380;28;20266;-72
2021/07/19 10:52:35;;;;;;;2.00;1.70;;;;;;;19.71;55.53;100958.81;5069395;28;20653;-72
2021/07/19 10:55:02;;;;;;;2.10;1.67;;;;;;;19.94;57.62;100958.91;5066168;28;20186;-73
2021/07/19 10:57:41;;;;;;;1.73;1.63;;;;;;;20.16;53.51;100957.44;5069359;28;20171;-72
2021/07/19 11:00:12;;;;;;;1.93;1.83;;;;;;;20.03;53.98;100947.63;5067626;28;20307;-72
2021/07/19 11:02:38;;;;;;;4.67;1.63;;;;;;;20.17;54.69;100956.25;5065569;28;20236;-71
2021/07/19 11:05:04;;;;;;;2.17;1.97;;;;;;;20.14;53.65;100946.69;5069155;28;20182;-72
2021/07/19 11:07:39;;;;;;;1.73;1.53;;;;;;;20.30;56.25;100952.19;5064931;28;20248;-72
2021/07/19 11:10:16;;;;;;;2.37;2.10;;;;;;;20.05;52.86;100943.31;5073450;28;20178;-72
2021/07/19 11:12:48;;;;;;;2.17;1.77;;;;;;;20.14;53.71;100952.25;5072954;28;20406;-72
2021/07/19 11:15:13;;;;;;;2.13;1.93;;;;;;;20.12;53.84;100959.31;5073430;28;20174;-73
2021/07/19 11:17:38;;;;;;;2.20;2.00;;;;;;;20.04;53.37;100947.25;5070740;28;20278;-73
2021/07/19 11:20:15;;;;;;;3.27;1.77;;;;;;;20.32;55.36;100949.03;5067419;28;20212;-72
2021/07/19 11:22:41;;;;;;;2.73;1.83;;;;;;;20.10;55.43;100950.53;5072336;28;20174;-72
2021/07/19 11:25:10;;;;;;;1.77;1.60;;;;;;;20.02;57.52;100937.69;5073418;28;20532;-72